Bellinger, South Carolina
Current Conditions -  °F | °C
As of 6:53 PM on Thursday 18 Dec 2014 (Local Time) from KSAV Reporting Station
Broken Clouds Broken Clouds  
Wind Chill: 51°   Ceiling: 25000
Heat Index: 51°   Visibility: 10mi
Dew Point: 40°   Wind: 3mph
Humidity: 66%   Direction: 260°W
Pressure: 30.1"   Gusts: NA
Location:  32.2576°N, 81.057°W
Report Text: KSAV 182353Z 26003KT 10SM SCT170 BKN250 11/04 A3010 RMK AO2 SLP194 T01060044 10178 20100 53011
Loading
Personal Weather Stations






























Interactive Weather Map New forecast layout! Learn more

10-Day Weather Forecast

Advertisements
Track Severe Weather on mobile